Time;durP1;ratioP1;P1;durP2;ratioP2;P2;SDS_P1;SDS_P2;PMS_P1;PMS_P2;Temp;Humidity;BMP_temperature;BMP_pressure;BME280_temperature;BME280_humidity;BME280_pressure;Samples;Min_cycle;Max_cycle;Signal;HPM_P1;HPM_P2
2022/01/29 00:00:06;;;;;;;12.50;7.68;;;;;;;-145.06;0.00;60892.56;4844851;28;20677;-91
2022/01/29 00:02:45;;;;;;;13.23;7.47;;;;;;;-145.06;0.00;60892.56;4860271;28;20029;-91
2022/01/29 00:05:24;;;;;;;14.32;7.97;;;;;;;-145.06;0.00;60892.56;4857561;28;20029;-90
2022/01/29 00:08:04;;;;;;;12.55;7.50;;;;;;;-145.06;0.00;60892.56;4862142;28;20028;-91
2022/01/29 00:10:45;;;;;;;11.27;6.75;;;;;;;-145.06;0.00;60892.56;4858184;28;20029;-91
2022/01/29 00:13:24;;;;;;;14.23;7.85;;;;;;;-145.06;0.00;60892.56;4899158;28;20029;-90
2022/01/29 00:16:04;;;;;;;14.10;8.50;;;;;;;-145.06;0.00;60892.56;4860769;28;20029;-91
2022/01/29 00:18:43;;;;;;;;;;;;;;;-145.06;0.00;60892.56;4858144;28;20487;-91
2022/01/29 00:21:22;;;;;;;13.65;7.35;;;;;;;-145.06;0.00;60892.56;4857990;28;19944;-90
2022/01/29 00:24:01;;;;;;;13.18;8.48;;;;;;;-145.06;0.00;60892.56;4857525;28;20076;-91
2022/01/29 00:26:40;;;;;;;12.63;7.82;;;;;;;-145.06;0.00;60892.56;4855699;28;20013;-91
2022/01/29 00:29:22;;;;;;;13.50;7.57;;;;;;;-145.06;0.00;60892.56;4864338;28;20415;-90
2022/01/29 00:32:01;;;;;;;12.93;7.82;;;;;;;-145.06;0.00;60892.56;4892491;28;20032;-90
2022/01/29 00:34:40;;;;;;;17.13;10.13;;;;;;;-145.06;0.00;60892.56;4864550;28;20037;-91
2022/01/29 00:37:19;;;;;;;16.42;9.90;;;;;;;-145.06;0.00;60892.56;4866029;28;20021;-91
2022/01/29 00:39:58;;;;;;;14.18;8.65;;;;;;;-145.06;0.00;60892.56;4857984;28;20496;-89
2022/01/29 00:42:37;;;;;;;12.88;8.20;;;;;;;-145.06;0.00;60892.56;4859521;28;20025;-90
2022/01/29 00:45:16;;;;;;;13.73;7.63;;;;;;;-145.06;0.00;60892.56;4855502;28;20069;-90
2022/01/29 00:47:54;;;;;;;16.63;9.53;;;;;;;-145.06;0.00;60892.56;4878256;28;20029;-90
2022/01/29 00:50:33;;;;;;;18.70;9.27;;;;;;;-145.06;0.00;60892.56;4859590;28;20377;-90
2022/01/29 00:53:12;;;;;;;22.45;11.80;;;;;;;-145.06;0.00;60892.56;4862871;28;20844;-91
2022/01/29 00:55:51;;;;;;;18.67;10.47;;;;;;;-145.06;0.00;60892.56;4857181;28;20029;-90
2022/01/29 00:58:30;;;;;;;16.87;10.53;;;;;;;-145.06;0.00;60892.56;4865736;28;20487;-91
2022/01/29 01:01:09;;;;;;;19.80;10.68;;;;;;;-145.06;0.00;60892.56;4848906;28;20388;-90
2022/01/29 01:03:49;;;;;;;14.93;9.10;;;;;;;-145.06;0.00;60892.56;4890146;28;20072;-89
2022/01/29 01:06:28;;;;;;;14.43;8.88;;;;;;;-145.06;0.00;60892.56;4856576;28;20057;-90
2022/01/29 01:09:07;;;;;;;18.93;10.87;;;;;;;6.87;0.00;60892.56;4885251;28;20033;-91
2022/01/29 01:11:46;;;;;;;17.63;9.73;;;;;;;-145.06;0.00;60892.56;4856980;28;20280;-91
2022/01/29 01:14:24;;;;;;;18.35;10.43;;;;;;;-145.06;0.00;60892.56;4851100;28;20037;-90
2022/01/29 01:17:05;;;;;;;14.02;8.38;;;;;;;-145.06;0.00;60892.56;4865020;28;20057;-90
2022/01/29 01:19:45;;;;;;;16.98;9.50;;;;;;;-145.06;0.00;60892.56;4878010;28;20033;-90
2022/01/29 01:22:24;;;;;;;16.50;9.65;;;;;;;-145.06;0.00;60892.56;4865907;28;20045;-90
2022/01/29 01:25:03;;;;;;;17.57;9.80;;;;;;;-145.06;0.00;60892.56;4851990;28;20037;-91
2022/01/29 01:27:42;;;;;;;20.63;10.38;;;;;;;-145.06;0.00;60892.56;4856661;28;20260;-91
2022/01/29 01:30:21;;;;;;;20.38;10.77;;;;;;;-145.06;0.00;60892.56;4856323;28;20535;-90
2022/01/29 01:33:03;;;;;;;18.97;10.43;;;;;;;-145.06;0.00;60892.56;4865347;28;20367;-91
2022/01/29 01:35:47;;;;;;;16.27;9.63;;;;;;;-145.06;0.00;60892.56;4853274;28;20037;-91
2022/01/29 01:39:11;;;;;;;16.77;9.07;;;;;;;-145.06;0.00;60892.56;4884426;28;20053;-90
2022/01/29 01:41:35;;;;;;;19.08;10.38;;;;;;;-145.06;0.00;60892.56;4860920;28;20392;-91
2022/01/29 01:44:14;;;;;;;15.50;9.07;;;;;;;-145.06;0.00;60892.56;4857092;28;20120;-90
2022/01/29 01:46:53;;;;;;;14.73;8.65;;;;;;;-145.06;0.00;60892.56;4856652;28;20072;-91
2022/01/29 01:49:32;;;;;;;15.07;7.97;;;;;;;-145.06;0.00;60892.56;4865693;28;20033;-90
2022/01/29 01:52:12;;;;;;;13.13;7.80;;;;;;;-145.06;0.00;60892.56;4855009;28;20037;-90
2022/01/29 01:54:51;;;;;;;;;;;;;;;-145.06;0.00;60892.56;4891927;28;20037;-89
2022/01/29 01:57:30;;;;;;;12.93;7.28;;;;;;;-145.06;0.00;60892.56;4872677;28;19913;-90
2022/01/29 02:00:10;;;;;;;13.97;8.70;;;;;;;-145.06;0.00;60892.56;4886771;28;20029;-90
2022/01/29 02:02:50;;;;;;;14.13;8.10;;;;;;;-145.06;0.00;60892.56;4906931;28;20293;-91
2022/01/29 02:05:29;;;;;;;15.82;8.60;;;;;;;-145.06;0.00;60892.56;4857484;28;20033;-91
2022/01/29 02:08:10;;;;;;;13.67;8.20;;;;;;;-145.06;0.00;60892.56;4858408;28;20116;-90
2022/01/29 02:10:50;;;;;;;16.42;9.10;;;;;;;-145.06;0.00;60892.56;4859593;28;20041;-90
2022/01/29 02:13:29;;;;;;;;;;;;;;;-145.06;0.00;60892.56;4862368;28;20220;-90
2022/01/29 02:16:08;;;;;;;14.43;8.27;;;;;;;-145.06;0.00;60892.56;4857669;28;19909;-92
2022/01/29 02:18:47;;;;;;;19.15;9.18;;;;;;;-145.06;0.00;60892.56;4856690;28;20037;-90
2022/01/29 02:21:27;;;;;;;17.27;9.47;;;;;;;-145.06;0.00;60892.56;4855643;28;20057;-91
2022/01/29 02:24:06;;;;;;;;;;;;;;;-145.06;0.00;60892.56;4851527;28;20272;-91
2022/01/29 02:26:45;;;;;;;16.60;9.55;;;;;;;-145.06;0.00;60892.56;4851779;28;19912;-91
2022/01/29 02:29:24;;;;;;;18.65;9.57;;;;;;;-145.06;0.00;60892.56;4863632;28;20029;-90
2022/01/29 02:32:03;;;;;;;15.43;8.85;;;;;;;-145.06;0.00;60892.56;4883422;28;20030;-91
2022/01/29 02:34:44;;;;;;;16.58;9.55;;;;;;;-145.06;0.00;60892.56;4856698;28;20037;-90
2022/01/29 02:37:23;;;;;;;18.52;9.93;;;;;;;6.98;0.00;79743.84;4864472;28;20037;-91
2022/01/29 02:40:03;;;;;;;;;;;;;;;-145.06;0.00;60892.56;4855603;28;20139;-90
2022/01/29 02:42:42;;;;;;;15.98;9.07;;;;;;;-145.06;0.00;60892.56;4851103;28;20171;-90
2022/01/29 02:45:21;;;;;;;15.20;9.80;;;;;;;-145.06;0.00;60892.56;4848225;28;20025;-90
2022/01/29 02:48:00;;;;;;;14.48;8.75;;;;;;;-145.06;0.00;60892.56;4851555;28;20595;-89
2022/01/29 02:50:40;;;;;;;18.02;10.15;;;;;;;-145.06;0.00;60892.56;4855044;28;20472;-91
2022/01/29 02:53:20;;;;;;;15.10;8.32;;;;;;;-145.06;0.00;60892.56;4892315;28;20072;-90
2022/01/29 02:55:59;;;;;;;13.77;8.63;;;;;;;-145.06;0.00;60892.56;4855625;28;20139;-90
2022/01/29 02:58:38;;;;;;;11.27;7.85;;;;;;;-145.06;0.00;60892.56;4889980;28;20021;-91
2022/01/29 03:01:18;;;;;;;13.63;8.40;;;;;;;-145.06;0.00;60892.56;4854233;28;20077;-90
2022/01/29 03:03:57;;;;;;;13.48;8.52;;;;;;;-145.06;0.00;60892.56;4867487;28;20287;-89
2022/01/29 03:06:36;;;;;;;15.43;8.93;;;;;;;-145.06;0.00;60892.56;4864359;28;20038;-91
2022/01/29 03:09:15;;;;;;;14.32;8.13;;;;;;;-145.06;0.00;60892.56;4855352;28;20300;-90
2022/01/29 03:11:56;;;;;;;13.67;7.67;;;;;;;-145.06;0.00;60892.56;4853920;28;20037;-90
2022/01/29 03:14:35;;;;;;;13.57;8.50;;;;;;;-145.06;0.00;60892.56;4866301;28;20471;-91
2022/01/29 03:17:14;;;;;;;14.40;8.83;;;;;;;-145.06;0.00;60892.56;4861887;28;20037;-89
2022/01/29 03:19:53;;;;;;;12.10;7.70;;;;;;;-145.06;0.00;60892.56;4860147;28;20838;-90
2022/01/29 03:22:32;;;;;;;;;;;;;;;-145.06;0.00;60892.56;4856536;28;20033;-90
2022/01/29 03:25:12;;;;;;;12.07;7.50;;;;;;;-145.06;0.00;60892.56;4862008;28;19960;-90
2022/01/29 03:27:51;;;;;;;13.52;7.25;;;;;;;10.68;0.00;60892.56;4854111;28;20471;-90
2022/01/29 03:30:30;;;;;;;11.20;7.20;;;;;;;10.68;0.00;60892.56;4862032;28;20037;-91
2022/01/29 03:33:09;;;;;;;9.10;6.50;;;;;;;-145.06;0.00;60892.56;4858842;28;20041;-89
2022/01/29 03:35:48;;;;;;;10.70;7.13;;;;;;;-145.06;0.00;60892.56;4859012;28;20033;-90
2022/01/29 03:38:27;;;;;;;9.15;6.28;;;;;;;-145.06;0.00;60892.56;4858390;28;20033;-90
2022/01/29 03:41:08;;;;;;;10.55;5.95;;;;;;;-145.06;0.00;60892.56;4859421;28;20069;-90
2022/01/29 03:43:51;;;;;;;9.32;6.07;;;;;;;8.08;0.00;60892.56;4867617;28;20032;-90
2022/01/29 03:46:29;;;;;;;9.38;6.18;;;;;;;-145.06;0.00;60892.56;4858217;28;20022;-90
2022/01/29 03:49:09;;;;;;;10.73;6.35;;;;;;;-145.06;0.00;60892.56;4895279;28;20044;-91
2022/01/29 03:51:48;;;;;;;8.85;5.93;;;;;;;-145.06;0.00;60892.56;4856282;28;20041;-90
2022/01/29 03:54:27;;;;;;;8.90;5.43;;;;;;;-145.06;0.00;60892.56;4849097;28;20029;-90
2022/01/29 03:57:06;;;;;;;8.07;5.23;;;;;;;-145.06;0.00;60892.56;4844885;28;20037;-91
2022/01/29 03:59:46;;;;;;;8.13;4.87;;;;;;;-145.06;0.00;60892.56;4861609;28;20032;-90
2022/01/29 04:02:25;;;;;;;;;;;;;;;-145.06;0.00;60892.56;4862821;28;20315;-90
2022/01/29 04:05:04;;;;;;;7.13;5.05;;;;;;;-145.06;0.00;60892.56;4854813;28;20040;-91
2022/01/29 04:07:43;;;;;;;10.75;6.10;;;;;;;-145.06;0.00;60892.56;4883537;28;20741;-91
2022/01/29 04:10:23;;;;;;;8.82;5.55;;;;;;;-145.06;0.00;60892.56;4858011;28;20033;-91
2022/01/29 04:13:03;;;;;;;7.85;4.95;;;;;;;-145.06;0.00;60892.56;4855854;28;20377;-90
2022/01/29 04:15:42;;;;;;;6.90;4.95;;;;;;;-145.06;0.00;60892.56;4857777;28;20110;-90
2022/01/29 04:18:21;;;;;;;7.63;4.95;;;;;;;-145.06;0.00;60892.56;4860590;28;20037;-91
2022/01/29 04:21:01;;;;;;;7.00;4.75;;;;;;;-145.06;0.00;60892.56;4861355;28;20029;-91
2022/01/29 04:23:40;;;;;;;7.75;5.22;;;;;;;187.52;0.00;60892.56;4858288;28;20068;-91
2022/01/29 04:26:19;;;;;;;7.13;4.50;;;;;;;-145.06;0.00;60892.56;4850174;28;20479;-91
2022/01/29 04:28:58;;;;;;;6.80;4.83;;;;;;;-145.06;0.00;60892.56;4855990;28;20033;-90
2022/01/29 04:31:58;;;;;;;6.37;4.57;;;;;;;-145.06;0.00;60892.56;4857557;28;20479;-91
2022/01/29 04:34:37;;;;;;;6.82;4.60;;;;;;;-145.06;0.00;60892.56;4866274;28;20116;-91
2022/01/29 04:37:16;;;;;;;6.65;4.63;;;;;;;-145.06;0.00;60892.56;4856546;28;20870;-92
2022/01/29 04:39:55;;;;;;;6.23;4.20;;;;;;;-145.06;0.00;60892.56;4857892;28;20025;-89
2022/01/29 04:42:34;;;;;;;6.25;4.30;;;;;;;-145.06;0.00;60892.56;4884555;28;20029;-90
2022/01/29 04:45:14;;;;;;;6.22;4.30;;;;;;;-145.06;0.00;60892.56;4854732;28;20037;-90
2022/01/29 04:47:52;;;;;;;5.07;3.63;;;;;;;-145.06;0.00;60892.56;4853858;28;20037;-91
2022/01/29 04:50:31;;;;;;;5.05;3.28;;;;;;;-145.06;0.00;60892.56;4857198;28;20521;-90
2022/01/29 04:53:10;;;;;;;4.90;3.30;;;;;;;-145.06;0.00;60892.56;4849284;28;20069;-91
2022/01/29 04:55:49;;;;;;;4.40;3.27;;;;;;;-145.06;0.00;60892.56;4854327;28;20045;-90
2022/01/29 04:58:29;;;;;;;4.00;2.67;;;;;;;-145.06;0.00;60892.56;4856987;28;20272;-92
2022/01/29 05:01:08;;;;;;;4.40;2.93;;;;;;;-145.06;0.00;60892.56;4855482;28;20041;-91
2022/01/29 05:03:46;;;;;;;3.47;2.50;;;;;;;-145.06;0.00;60892.56;4855522;28;20385;-90
2022/01/29 05:06:25;;;;;;;3.67;2.50;;;;;;;-145.06;0.00;60892.56;4849935;28;20033;-90
2022/01/29 05:09:07;;;;;;;4.13;2.40;;;;;;;-145.06;0.00;60892.56;4857210;28;20068;-89
2022/01/29 05:11:50;;;;;;;2.75;2.00;;;;;;;-145.06;0.00;60892.56;4857401;28;20364;-91
2022/01/29 05:14:47;;;;;;;3.28;2.20;;;;;;;-145.06;0.00;60892.56;4859290;28;20029;-90
2022/01/29 05:29:00;;;;;;;3.13;2.40;;;;;;;-145.06;0.00;60892.56;4860784;28;20037;-90
2022/01/29 05:31:39;;;;;;;2.83;2.20;;;;;;;-145.06;0.00;60892.56;4870994;28;20045;-91
2022/01/29 05:34:19;;;;;;;3.00;2.05;;;;;;;-145.06;0.00;60892.56;4878153;28;20045;-90
2022/01/29 05:36:58;;;;;;;;;;;;;;;-145.06;0.00;60892.56;4857425;28;20029;-91
2022/01/29 05:39:37;;;;;;;3.20;2.30;;;;;;;-145.06;0.00;60892.56;4858938;28;19920;-90
2022/01/29 05:42:16;;;;;;;2.90;2.20;;;;;;;-145.06;0.00;60892.56;4856742;28;20033;-90
2022/01/29 05:44:55;;;;;;;2.80;2.00;;;;;;;-145.06;0.00;60892.56;4856976;28;20109;-91
2022/01/29 05:47:35;;;;;;;2.92;1.95;;;;;;;-145.06;0.00;60892.56;4860846;28;20463;-89
2022/01/29 05:50:14;;;;;;;3.33;2.00;;;;;;;-145.06;0.00;60892.56;4855456;28;20033;-90
2022/01/29 05:52:53;;;;;;;3.53;2.35;;;;;;;-145.06;0.00;60892.56;4851001;28;20116;-91
2022/01/29 05:55:32;;;;;;;2.72;2.35;;;;;;;-145.06;0.00;60892.56;4850224;28;20029;-90
2022/01/29 05:58:11;;;;;;;2.20;1.73;;;;;;;-145.06;0.00;60892.56;4857129;28;20069;-90
2022/01/29 06:00:50;;;;;;;3.00;2.40;;;;;;;-145.06;0.00;60892.56;4855857;28;20025;-90
2022/01/29 06:03:29;;;;;;;3.03;2.37;;;;;;;-145.06;0.00;60892.56;4859602;28;20029;-90
2022/01/29 06:06:09;;;;;;;2.67;1.88;;;;;;;-145.06;0.00;60892.56;4847840;28;20041;-90
2022/01/29 06:08:48;;;;;;;2.88;2.28;;;;;;;-145.06;0.00;60892.56;4855837;28;20069;-90
2022/01/29 06:11:28;;;;;;;3.60;2.45;;;;;;;-145.06;0.00;60892.56;4866304;28;20037;-89
2022/01/29 06:14:07;;;;;;;;;;;;;;;-145.06;0.00;60892.56;4859206;28;20041;-91
2022/01/29 06:16:46;;;;;;;3.17;2.50;;;;;;;-145.06;0.00;60892.56;4857299;28;19921;-90
2022/01/29 06:19:25;;;;;;;3.85;2.80;;;;;;;-145.06;0.00;60892.56;4855870;28;20280;-90
2022/01/29 06:22:09;;;;;;;3.38;2.50;;;;;;;-145.06;0.00;60892.56;4857373;28;20073;-91
2022/01/29 06:24:49;;;;;;;3.05;2.47;;;;;;;-145.06;0.00;60892.56;4857787;28;20539;-90
2022/01/29 06:27:28;;;;;;;3.65;2.63;;;;;;;-145.06;0.00;60892.56;4856388;28;20116;-90
2022/01/29 06:30:07;;;;;;;2.30;1.93;;;;;;;-145.06;0.00;60892.56;4857778;28;20041;-91
2022/01/29 06:32:46;;;;;;;3.45;2.47;;;;;;;-145.06;0.00;60892.56;4855480;28;20475;-91
2022/01/29 06:35:25;;;;;;;2.47;2.08;;;;;;;-145.06;0.00;60892.56;4865057;28;20045;-91
2022/01/29 06:38:06;;;;;;;2.72;2.13;;;;;;;-145.06;0.00;60892.56;4859907;28;20030;-91
2022/01/29 06:40:45;;;;;;;2.58;2.20;;;;;;;-145.06;0.00;60892.56;4871924;28;20470;-91
2022/01/29 06:43:24;;;;;;;3.08;2.40;;;;;;;-145.06;0.00;60892.56;4862855;28;20115;-92
2022/01/29 06:46:03;;;;;;;2.40;1.90;;;;;;;-145.06;0.00;60892.56;4859884;28;20025;-90
2022/01/29 06:48:42;;;;;;;2.65;2.22;;;;;;;-145.06;0.00;60892.56;4858150;28;20263;-91
2022/01/29 06:51:21;;;;;;;3.03;2.25;;;;;;;-145.06;0.00;60892.56;4885293;28;20494;-91
2022/01/29 06:54:00;;;;;;;2.70;1.90;;;;;;;-145.06;0.00;60892.56;4864177;28;20383;-90
2022/01/29 06:56:39;;;;;;;2.47;1.98;;;;;;;-145.06;0.00;60892.56;4860425;28;20042;-91
2022/01/29 06:59:18;;;;;;;2.72;1.77;;;;;;;-145.06;0.00;60892.56;4856907;28;20376;-91
2022/01/29 07:01:57;;;;;;;2.33;1.90;;;;;;;-145.06;0.00;60892.56;4859472;28;20033;-91
2022/01/29 07:04:35;;;;;;;2.08;1.67;;;;;;;-145.06;0.00;60892.56;4859309;28;20037;-91
2022/01/29 07:07:14;;;;;;;1.88;1.60;;;;;;;-145.06;0.00;60892.56;4880321;28;20051;-91
2022/01/29 07:09:53;;;;;;;2.33;1.98;;;;;;;-145.06;0.00;60892.56;4860042;28;20038;-91
2022/01/29 07:12:33;;;;;;;2.83;2.27;;;;;;;-145.06;0.00;60892.56;4863241;28;20045;-91
2022/01/29 07:15:12;;;;;;;3.10;2.22;;;;;;;-145.06;0.00;60892.56;4864336;28;20041;-92
2022/01/29 07:17:51;;;;;;;2.92;2.20;;;;;;;-145.06;0.00;60892.56;4868962;28;20033;-90
2022/01/29 07:20:30;;;;;;;3.10;2.20;;;;;;;-145.06;0.00;60892.56;4868479;28;20115;-90
2022/01/29 07:23:09;;;;;;;2.33;2.03;;;;;;;7.76;0.00;60892.56;4856736;28;20100;-90
2022/01/29 07:25:48;;;;;;;2.97;2.13;;;;;;;-145.06;0.00;60892.56;4858281;28;20119;-91
2022/01/29 07:28:27;;;;;;;2.47;2.10;;;;;;;-145.06;0.00;60892.56;4858712;28;20100;-91
2022/01/29 07:31:06;;;;;;;2.47;2.03;;;;;;;-145.06;0.00;60892.56;4857403;28;20029;-91
2022/01/29 07:33:45;;;;;;;2.78;2.22;;;;;;;-145.06;0.00;60892.56;4859201;28;20028;-92
2022/01/29 07:36:24;;;;;;;3.17;2.50;;;;;;;-145.06;0.00;60892.56;4893277;28;20032;-90
2022/01/29 07:39:03;;;;;;;2.70;1.90;;;;;;;8.08;0.00;60892.56;4869438;28;20368;-90
2022/01/29 07:41:42;;;;;;;2.20;2.00;;;;;;;-145.06;0.00;60892.56;4862709;28;20627;-90
2022/01/29 07:44:23;;;;;;;3.17;2.35;;;;;;;-145.06;0.00;60892.56;4867235;28;20029;-91
2022/01/29 07:47:01;;;;;;;;;;;;;;;-145.06;0.00;60892.56;4861663;28;20048;-91
2022/01/29 07:49:40;;;;;;;2.65;2.10;;;;;;;-145.06;0.00;60892.56;4857049;28;19999;-91
2022/01/29 07:52:19;;;;;;;3.03;2.43;;;;;;;8.08;0.00;60892.56;4854896;28;20041;-91
2022/01/29 07:54:58;;;;;;;4.00;2.30;;;;;;;7.59;0.00;60892.56;4855115;28;20033;-91
2022/01/29 07:57:37;;;;;;;3.25;2.17;;;;;;;7.60;0.00;60892.56;4858342;28;20025;-90
2022/01/29 08:00:16;;;;;;;2.63;1.70;;;;;;;-145.06;0.00;60892.56;4863861;28;20033;-90
2022/01/29 08:02:55;;;;;;;1.88;1.67;;;;;;;-145.06;0.00;60892.56;4858555;28;20280;-91
2022/01/29 08:05:35;;;;;;;3.28;2.28;;;;;;;-145.06;0.00;60892.56;4856026;28;20038;-91
2022/01/29 08:08:14;;;;;;;;;;;;;;;-145.06;0.00;60892.56;4885483;28;20030;-91
2022/01/29 08:10:53;;;;;;;2.97;1.98;;;;;;;-145.06;0.00;60892.56;4856151;28;20008;-90
2022/01/29 08:13:32;;;;;;;2.53;1.93;;;;;;;7.70;0.00;60892.56;4853044;28;20037;-89
2022/01/29 08:16:11;;;;;;;2.47;1.88;;;;;;;-145.06;0.00;60892.56;4878886;28;20761;-90
2022/01/29 08:18:50;;;;;;;3.53;2.33;;;;;;;-145.06;0.00;60892.56;4852061;28;20335;-91
2022/01/29 08:21:29;;;;;;;6.57;2.20;;;;;;;7.78;0.00;60892.56;4849871;28;20037;-91
2022/01/29 08:24:08;;;;;;;2.23;1.87;;;;;;;-145.06;0.00;60892.56;4856592;28;20436;-91
2022/01/29 08:26:47;;;;;;;3.90;2.40;;;;;;;-145.06;0.00;60892.56;4883095;28;20272;-89
2022/01/29 08:29:26;;;;;;;2.00;1.80;;;;;;;-145.06;0.00;60892.56;4853268;28;20369;-91
2022/01/29 08:32:05;;;;;;;2.05;1.70;;;;;;;-145.06;0.00;60892.56;4851064;28;20061;-90
2022/01/29 08:34:46;;;;;;;2.03;1.80;;;;;;;-145.06;0.00;60892.56;4856880;28;20057;-91
2022/01/29 08:37:25;;;;;;;2.15;1.80;;;;;;;-145.06;0.00;60892.56;4855486;28;20029;-90
2022/01/29 08:40:05;;;;;;;1.97;1.60;;;;;;;-145.06;0.00;60892.56;4854215;28;20522;-90
2022/01/29 08:42:44;;;;;;;;;;;;;;;-145.06;0.00;60892.56;4885191;28;20057;-91
2022/01/29 08:45:23;;;;;;;2.60;1.95;;;;;;;-145.06;0.00;60892.56;4856243;28;19912;-90
2022/01/29 08:48:02;;;;;;;1.60;1.48;;;;;;;-145.06;0.00;60892.56;4855471;28;20029;-91
2022/01/29 08:50:41;;;;;;;1.50;1.38;;;;;;;-145.06;0.00;60892.56;4853962;28;20037;-89
2022/01/29 08:53:21;;;;;;;2.07;1.53;;;;;;;-145.06;0.00;60892.56;4858238;28;20381;-91
2022/01/29 08:56:00;;;;;;;1.73;1.45;;;;;;;-145.06;0.00;60892.56;4865627;28;20363;-90
2022/01/29 08:58:39;;;;;;;2.07;1.77;;;;;;;-145.06;0.00;60892.56;4879233;28;20104;-89
2022/01/29 09:01:18;;;;;;;2.13;1.52;;;;;;;-145.06;0.00;60892.56;4862150;28;20041;-89
2022/01/29 09:03:58;;;;;;;2.17;1.60;;;;;;;-145.06;0.00;60892.56;4867353;28;20037;-89
2022/01/29 09:06:37;;;;;;;2.42;1.65;;;;;;;-145.06;0.00;60892.56;4867033;28;20351;-90
2022/01/29 09:09:20;;;;;;;3.70;1.67;;;;;;;-145.06;0.00;60892.56;4875115;28;20029;-91
2022/01/29 09:12:01;;;;;;;2.25;1.35;;;;;;;-145.06;0.00;60892.56;4851792;28;20793;-91
2022/01/29 09:14:40;;;;;;;2.17;1.63;;;;;;;-145.06;0.00;60892.56;4850693;28;20033;-90
2022/01/29 09:17:19;;;;;;;1.50;1.40;;;;;;;-145.06;0.00;60892.56;4848889;28;20034;-90
2022/01/29 09:19:58;;;;;;;2.00;1.50;;;;;;;-145.06;0.00;60892.56;4849285;28;20096;-90
2022/01/29 09:22:38;;;;;;;2.35;1.30;;;;;;;-145.06;0.00;60892.56;4850881;28;20033;-91
2022/01/29 09:25:17;;;;;;;;;;;;;;;-145.06;0.00;60892.56;4877334;28;20980;-89
2022/01/29 09:27:56;;;;;;;2.97;1.40;;;;;;;-145.06;0.00;60892.56;4850859;28;19916;-90
2022/01/29 09:30:35;;;;;;;2.07;1.67;;;;;;;-145.06;0.00;60892.56;4849918;28;20495;-89
2022/01/29 09:33:14;;;;;;;1.60;1.27;;;;;;;-145.06;0.00;60892.56;4849192;28;20380;-90
2022/01/29 09:35:53;;;;;;;1.67;1.33;;;;;;;9.06;0.00;60892.56;4848821;28;20045;-89
2022/01/29 09:38:32;;;;;;;1.77;1.30;;;;;;;-145.06;0.00;60892.56;4849397;28;20033;-91
2022/01/29 09:41:12;;;;;;;1.20;1.10;;;;;;;9.06;0.00;60892.56;4846919;28;20049;-91
2022/01/29 09:43:53;;;;;;;1.83;1.27;;;;;;;-145.06;0.00;60892.56;4849428;28;20064;-90
2022/01/29 09:46:32;;;;;;;1.88;1.25;;;;;;;-145.06;0.00;60892.56;4849718;28;20530;-90
2022/01/29 09:49:11;;;;;;;1.40;1.20;;;;;;;-145.06;0.00;60892.56;4848713;28;20045;-90
2022/01/29 09:51:51;;;;;;;1.85;1.10;;;;;;;-145.06;0.00;60892.56;4851279;28;20133;-90
2022/01/29 09:54:30;;;;;;;1.35;1.00;;;;;;;9.04;0.00;60892.56;4850346;28;20033;-88
2022/01/29 09:57:09;;;;;;;1.27;1.13;;;;;;;-145.06;0.00;60892.56;4851248;28;20475;-90
2022/01/29 09:59:50;;;;;;;1.40;1.00;;;;;;;-145.06;0.00;60892.56;4877927;28;20264;-90
2022/01/29 10:02:29;;;;;;;1.40;1.00;;;;;;;9.17;0.00;60892.56;4850756;28;20268;-90
2022/01/29 10:05:11;;;;;;;1.10;1.00;;;;;;;9.17;0.00;60892.56;4849830;28;20037;-89
2022/01/29 10:08:00;;;;;;;1.02;0.82;;;;;;;-145.06;0.00;60892.56;4848476;28;20264;-91
2022/01/29 10:10:48;;;;;;;1.08;0.80;;;;;;;-145.06;0.00;60892.56;4873122;28;20029;-90
2022/01/29 10:13:31;;;;;;;1.42;0.80;;;;;;;10.68;0.00;60892.56;4851300;28;20025;-90
2022/01/29 10:16:14;;;;;;;1.10;1.00;;;;;;;9.38;0.00;60892.56;4878401;28;20037;-90
2022/01/29 10:19:09;;;;;;;1.10;0.90;;;;;;;9.28;0.00;60892.56;4850645;28;20160;-90
2022/01/29 10:21:48;;;;;;;1.08;0.95;;;;;;;9.29;0.00;60892.56;4846810;28;20063;-89
2022/01/29 10:24:27;;;;;;;1.23;0.98;;;;;;;-145.06;0.00;60892.56;4846383;28;20029;-90
2022/01/29 10:27:06;;;;;;;0.75;0.55;;;;;;;9.30;0.00;60892.56;4844994;28;20033;-90
2022/01/29 10:29:58;;;;;;;0.97;0.67;;;;;;;9.38;0.00;60892.56;4849121;28;20033;-90
2022/01/29 10:32:37;;;;;;;0.70;0.70;;;;;;;-145.06;0.00;60892.56;4874443;28;20455;-92
2022/01/29 10:35:16;;;;;;;0.87;0.67;;;;;;;-145.06;0.00;60892.56;4850339;28;20033;-90
2022/01/29 10:37:57;;;;;;;1.10;0.80;;;;;;;-145.06;0.00;60892.56;4848804;28;20608;-90
2022/01/29 10:40:38;;;;;;;1.15;0.60;;;;;;;-145.06;0.00;60892.56;4846739;28;20450;-91
2022/01/29 10:43:17;;;;;;;0.57;0.50;;;;;;;-145.06;0.00;60892.56;4851568;28;20033;-89
2022/01/29 10:45:56;;;;;;;0.75;0.70;;;;;;;-145.06;0.00;60892.56;4849470;28;20041;-89
2022/01/29 10:48:45;;;;;;;0.60;0.60;;;;;;;-145.06;0.00;60892.56;4850138;28;20475;-89
2022/01/29 10:51:25;;;;;;;0.52;0.43;;;;;;;-145.06;0.00;60892.56;4838620;28;20033;-90
2022/01/29 10:54:19;;;;;;;1.58;0.70;;;;;;;-145.06;0.00;60892.56;4848520;28;20033;-91
2022/01/29 10:57:03;;;;;;;0.98;0.50;;;;;;;-145.06;0.00;60892.56;4845866;28;20551;-89
2022/01/29 10:59:50;;;;;;;0.82;0.47;;;;;;;-145.06;0.00;60892.56;4849103;28;20033;-90
2022/01/29 11:02:30;;;;;;;1.63;0.63;;;;;;;-145.06;0.00;60892.56;4846330;28;20065;-90
2022/01/29 11:05:10;;;;;;;0.32;0.32;;;;;;;-145.06;0.00;60892.56;4848356;28;20029;-90
2022/01/29 11:07:52;;;;;;;;;;;;;;;-145.06;0.00;60892.56;4850977;28;20025;-91
2022/01/29 11:10:32;;;;;;;0.50;0.50;;;;;;;-145.06;0.00;60892.56;4849350;28;20363;-91
2022/01/29 11:13:11;;;;;;;0.60;0.50;;;;;;;-145.06;0.00;60892.56;4876676;28;20042;-91
2022/01/29 11:15:56;;;;;;;0.40;0.40;;;;;;;-145.06;0.00;60892.56;4850126;28;20562;-90
2022/01/29 11:18:35;;;;;;;0.55;0.50;;;;;;;-145.06;0.00;60892.56;4849117;28;20029;-90
2022/01/29 11:21:15;;;;;;;0.70;0.60;;;;;;;-145.06;0.00;60892.56;4846785;28;20034;-90
2022/01/29 11:23:56;;;;;;;0.80;0.57;;;;;;;-145.06;0.00;60892.56;4877245;28;20057;-90
2022/01/29 11:26:36;;;;;;;;;;;;;;;-145.06;0.00;60892.56;4848489;28;20617;-90
2022/01/29 11:29:25;;;;;;;0.40;0.40;;;;;;;-145.06;0.00;60892.56;4847098;28;19917;-90
2022/01/29 11:32:23;;;;;;;0.70;0.50;;;;;;;-145.06;0.00;60892.56;4847590;28;20483;-90
2022/01/29 11:35:14;;;;;;;0.50;0.50;;;;;;;-145.06;0.00;60892.56;4844127;28;20049;-89
2022/01/29 11:38:02;;;;;;;0.88;0.50;;;;;;;-145.06;0.00;60892.56;4851650;28;20396;-90
2022/01/29 11:40:54;;;;;;;0.60;0.60;;;;;;;-145.06;0.00;60892.56;4851854;28;20360;-90
2022/01/29 11:43:34;;;;;;;0.70;0.57;;;;;;;-145.06;0.00;60892.56;4879798;28;20033;-91
2022/01/29 11:46:32;;;;;;;1.17;0.80;;;;;;;-145.06;0.00;60892.56;4849878;28;20041;-89
2022/01/29 11:49:21;;;;;;;0.52;0.50;;;;;;;-145.06;0.00;60892.56;4866765;28;20388;-90
2022/01/29 11:52:22;;;;;;;0.50;0.50;;;;;;;-145.06;0.00;60892.56;4846192;28;20041;-89
2022/01/29 11:55:05;;;;;;;0.50;0.50;;;;;;;-145.06;0.00;60892.56;4851568;28;20396;-90
2022/01/29 11:58:12;;;;;;;0.57;0.40;;;;;;;-145.06;0.00;60892.56;4851726;28;20041;-90
2022/01/29 12:01:04;;;;;;;0.93;0.68;;;;;;;-145.06;0.00;60892.56;4878724;28;20068;-90
2022/01/29 12:03:45;;;;;;;0.60;0.60;;;;;;;-145.06;0.00;60892.56;4878021;28;20041;-89
2022/01/29 12:06:30;;;;;;;1.13;0.80;;;;;;;-145.06;0.00;60892.56;4860945;28;20425;-90
2022/01/29 12:09:34;;;;;;;0.80;0.60;;;;;;;-145.06;0.00;60892.56;4853237;28;20042;-90
2022/01/29 12:12:27;;;;;;;0.47;0.47;;;;;;;-145.06;0.00;60892.56;4851479;28;20041;-90
2022/01/29 12:15:09;;;;;;;0.52;0.50;;;;;;;-145.06;0.00;60892.56;4856298;28;20033;-89
2022/01/29 12:17:57;;;;;;;0.63;0.60;;;;;;;-145.06;0.00;60892.56;4878780;28;20048;-91
2022/01/29 12:20:38;;;;;;;0.88;0.65;;;;;;;-145.06;0.00;60892.56;4853466;28;20029;-91
2022/01/29 12:23:17;;;;;;;0.88;0.60;;;;;;;9.93;0.00;60892.56;4847083;28;20034;-90
2022/01/29 12:25:59;;;;;;;0.60;0.60;;;;;;;-145.06;0.00;60892.56;4879835;28;20041;-89
2022/01/29 12:28:47;;;;;;;0.50;0.50;;;;;;;-145.06;0.00;60892.56;4855640;28;20048;-89
2022/01/29 12:31:26;;;;;;;0.65;0.65;;;;;;;-145.06;0.00;60892.56;4867694;28;20029;-90
2022/01/29 12:34:13;;;;;;;0.87;0.70;;;;;;;10.13;0.00;60892.56;4850281;28;20448;-89
2022/01/29 12:37:07;;;;;;;1.02;0.80;;;;;;;-145.06;0.00;60892.56;4864816;28;20025;-90
2022/01/29 12:39:48;;;;;;;0.60;0.60;;;;;;;-145.06;0.00;60892.56;4871776;28;20025;-89
2022/01/29 12:42:42;;;;;;;0.98;0.68;;;;;;;10.37;0.00;60892.56;4860171;28;20033;-92